createdAt,value
2018-04-06T00:00:54.346Z,97.10
2018-04-06T00:03:23.372Z,97.00
2018-04-06T00:05:51.689Z,97.00
2018-04-06T00:08:19.938Z,97.00
2018-04-06T00:10:48.206Z,97.10
2018-04-06T00:13:16.451Z,97.00
2018-04-06T00:15:44.714Z,97.00
2018-04-06T00:18:12.951Z,97.10
2018-04-06T00:20:41.282Z,97.10
2018-04-06T00:23:09.553Z,97.10
2018-04-06T00:25:37.844Z,97.30
2018-04-06T00:28:06.070Z,97.40
2018-04-06T00:30:34.329Z,97.50
2018-04-06T00:33:03.330Z,97.90
2018-04-06T00:35:32.351Z,98.00
2018-04-06T00:38:00.590Z,98.00
2018-04-06T00:40:29.638Z,98.10
2018-04-06T00:42:57.882Z,98.20
2018-04-06T00:45:26.906Z,98.40
2018-04-06T00:47:55.149Z,98.40
2018-04-06T00:50:24.162Z,98.30
2018-04-06T00:52:53.192Z,98.40
2018-04-06T00:55:21.461Z,98.40
2018-04-06T00:57:49.711Z,98.50
2018-04-06T01:00:18.723Z,98.50
2018-04-06T01:02:46.987Z,98.50
2018-04-06T01:05:16.011Z,98.60
2018-04-06T01:07:44.246Z,98.60
2018-04-06T01:10:12.583Z,98.70
2018-04-06T01:12:40.869Z,98.80
2018-04-06T01:15:09.137Z,99.00
2018-04-06T01:17:37.410Z,99.20
2018-04-06T01:20:05.652Z,99.30
2018-04-06T01:22:33.907Z,99.30
2018-04-06T01:25:02.194Z,99.40
2018-04-06T01:27:30.434Z,99.30
2018-04-06T01:29:58.673Z,99.50
2018-04-06T01:32:27.718Z,99.50
2018-04-06T01:34:56.095Z,99.50
2018-04-06T01:37:24.379Z,99.50
2018-04-06T01:39:52.615Z,99.70
2018-04-06T01:42:21.672Z,99.30
2018-04-06T01:44:49.909Z,99.30
2018-04-06T01:47:18.934Z,99.40
2018-04-06T01:49:47.214Z,99.50
2018-04-06T01:52:15.474Z,99.40
2018-04-06T01:54:43.785Z,99.70
2018-04-06T01:57:12.067Z,99.90
2018-04-06T01:59:40.315Z,99.90
2018-04-06T02:02:08.618Z,99.90
2018-04-06T02:04:36.874Z,99.90
2018-04-06T02:07:05.901Z,99.90
2018-04-06T02:09:34.144Z,99.90
2018-04-06T02:12:03.166Z,99.90
2018-04-06T02:14:31.413Z,99.90
2018-04-06T02:16:59.730Z,99.90
2018-04-06T02:19:28.026Z,99.90
2018-04-06T02:21:57.139Z,99.90
2018-04-06T02:24:25.453Z,99.90
2018-04-06T02:26:53.686Z,99.90
2018-04-06T02:29:21.947Z,99.90
2018-04-06T02:31:50.206Z,99.90
2018-04-06T02:34:19.212Z,99.90
2018-04-06T02:36:47.478Z,99.90
2018-04-06T02:39:16.525Z,99.90
2018-04-06T02:41:44.779Z,99.90
2018-04-06T02:44:13.016Z,99.90
2018-04-06T02:46:41.265Z,99.90
2018-04-06T02:49:09.544Z,99.90
2018-04-06T02:51:37.805Z,99.90
2018-04-06T02:54:06.073Z,99.90
2018-04-06T02:56:35.086Z,99.90
2018-04-06T02:59:03.334Z,99.90
2018-04-06T03:01:32.358Z,99.90
2018-04-06T03:04:00.685Z,99.90
2018-04-06T03:06:29.038Z,99.90
2018-04-06T03:08:57.281Z,99.90
2018-04-06T03:11:26.301Z,99.90
2018-04-06T03:13:54.596Z,99.90
2018-04-06T03:16:22.854Z,99.90
2018-04-06T03:18:51.103Z,99.90
2018-04-06T03:21:20.121Z,99.90
2018-04-06T03:23:48.395Z,99.90
2018-04-06T03:26:17.434Z,99.90
2018-04-06T03:28:45.676Z,99.90
2018-04-06T03:31:14.690Z,99.90
2018-04-06T03:33:42.926Z,99.90
2018-04-06T03:36:11.277Z,99.90
2018-04-06T03:38:39.541Z,99.90
2018-04-06T03:41:07.807Z,99.90
2018-04-06T03:43:36.045Z,99.90
2018-04-06T03:46:04.396Z,99.90
2018-04-06T03:48:32.687Z,99.90
2018-04-06T03:51:00.955Z,99.90
2018-04-06T03:53:29.234Z,99.90
2018-04-06T03:55:57.514Z,99.90
2018-04-06T03:58:25.765Z,99.90
2018-04-06T04:00:54.782Z,99.90
2018-04-06T04:03:23.095Z,99.90
2018-04-06T04:05:51.337Z,99.90
2018-04-06T04:08:19.588Z,99.90
2018-04-06T04:10:47.841Z,99.90
2018-04-06T04:13:16.197Z,99.90
2018-04-06T04:15:44.470Z,99.90
2018-04-06T04:18:13.495Z,99.90
2018-04-06T04:20:41.746Z,99.90
2018-04-06T04:23:10.002Z,99.90
2018-04-06T04:25:38.243Z,99.90
2018-04-06T04:28:06.626Z,99.90
2018-04-06T04:30:34.889Z,99.90
2018-04-06T04:33:03.154Z,99.90
2018-04-06T04:35:31.399Z,99.90
2018-04-06T04:38:00.408Z,99.90
2018-04-06T04:40:29.414Z,99.90
2018-04-06T04:42:58.435Z,99.90
2018-04-06T04:45:26.875Z,99.90
2018-04-06T04:47:55.218Z,99.90
2018-04-06T04:50:23.497Z,99.90
2018-04-06T04:52:51.765Z,99.90
2018-04-06T04:55:20.008Z,99.90
2018-04-06T04:57:49.033Z,99.90
2018-04-06T05:00:17.288Z,99.90
2018-04-06T05:02:46.296Z,99.90
2018-04-06T05:05:15.324Z,99.90
2018-04-06T05:07:43.565Z,99.90
2018-04-06T05:10:12.597Z,99.90
2018-04-06T05:12:40.839Z,99.90
2018-04-06T05:15:09.913Z,99.90
2018-04-06T05:17:38.206Z,99.90
2018-04-06T05:20:06.414Z,99.90
2018-04-06T05:22:34.767Z,99.90
2018-04-06T05:25:03.004Z,99.90
2018-04-06T05:27:31.246Z,99.90
2018-04-06T05:30:00.280Z,99.90
2018-04-06T05:32:28.570Z,99.90
2018-04-06T05:34:56.822Z,99.90
2018-04-06T05:37:25.175Z,99.90
2018-04-06T05:39:53.395Z,99.90
2018-04-06T05:42:21.633Z,99.90
2018-04-06T05:44:49.900Z,99.90
2018-04-06T05:47:18.143Z,99.90
2018-04-06T05:49:46.390Z,99.90
2018-04-06T05:52:15.409Z,99.90
2018-04-06T05:54:43.655Z,99.90
2018-04-06T05:57:11.940Z,99.90
2018-04-06T05:59:40.185Z,99.90
2018-04-06T06:02:08.450Z,99.90
2018-04-06T06:04:36.744Z,99.90
2018-04-06T06:07:05.007Z,99.90
2018-04-06T06:09:33.327Z,99.90
2018-04-06T06:12:01.622Z,99.60
2018-04-06T06:14:29.954Z,98.60
2018-04-06T06:16:58.230Z,97.80
2018-04-06T06:19:26.478Z,96.60
2018-04-06T06:21:55.503Z,95.00
2018-04-06T06:24:23.791Z,95.00
2018-04-06T06:26:52.051Z,94.30
2018-04-06T06:29:20.289Z,93.50
2018-04-06T06:31:48.548Z,92.60
2018-04-06T06:34:16.806Z,91.20
2018-04-06T06:36:45.094Z,90.40
2018-04-06T06:39:13.376Z,90.50
2018-04-06T06:41:41.638Z,86.50
2018-04-06T06:44:09.901Z,84.20
2018-04-06T06:46:39.004Z,80.00
2018-04-06T06:49:08.014Z,78.20
2018-04-06T06:51:36.314Z,78.00
2018-04-06T06:54:04.563Z,76.20
2018-04-06T06:56:33.686Z,73.50
2018-04-06T06:59:01.959Z,73.40
2018-04-06T07:01:30.210Z,72.00
2018-04-06T07:03:59.222Z,70.50
2018-04-06T07:06:27.467Z,70.50
2018-04-06T07:08:55.719Z,69.90
2018-04-06T07:11:23.968Z,68.90
2018-04-06T07:13:52.231Z,68.00
2018-04-06T07:16:21.231Z,67.90
2018-04-06T07:18:50.259Z,67.10
2018-04-06T07:21:18.563Z,67.00
2018-04-06T07:23:46.826Z,65.90
2018-04-06T07:26:15.115Z,65.70
2018-04-06T07:28:43.378Z,65.50
2018-04-06T07:31:11.674Z,64.80
2018-04-06T07:33:39.955Z,63.70
2018-04-06T07:36:08.201Z,63.70
2018-04-06T07:38:37.262Z,62.30
2018-04-06T07:41:05.521Z,62.30
2018-04-06T07:43:33.772Z,61.70
2018-04-06T07:46:02.008Z,60.60
2018-04-06T07:48:30.313Z,60.20
2018-04-06T07:50:58.546Z,59.60
2018-04-06T07:53:26.794Z,59.20
2018-04-06T07:55:55.045Z,58.10
2018-04-06T07:58:23.296Z,57.80
2018-04-06T08:00:51.577Z,57.30
2018-04-06T08:03:19.991Z,56.80
2018-04-06T08:05:48.219Z,55.70
2018-04-06T08:08:16.518Z,55.40
2018-04-06T08:10:44.762Z,55.10
2018-04-06T08:13:13.107Z,55.30
2018-04-06T08:15:41.343Z,55.70
2018-04-06T08:18:09.609Z,55.30
2018-04-06T08:20:38.595Z,55.40
2018-04-06T08:23:07.610Z,55.00
2018-04-06T08:25:35.872Z,55.10
2018-04-06T08:28:04.894Z,54.70
2018-04-06T08:30:33.203Z,54.70
2018-04-06T08:33:01.459Z,56.00
2018-04-06T08:35:29.736Z,56.50
2018-04-06T08:37:57.989Z,54.00
2018-04-06T08:40:27.031Z,54.50
2018-04-06T08:42:55.285Z,54.50
2018-04-06T08:45:23.526Z,54.00
2018-04-06T08:47:51.870Z,53.10
2018-04-06T08:50:20.118Z,53.10
2018-04-06T08:52:48.377Z,51.20
2018-04-06T08:55:16.720Z,50.90
2018-04-06T08:57:45.033Z,49.60
2018-04-06T09:00:13.302Z,48.40
2018-04-06T09:02:41.570Z,47.60
2018-04-06T09:05:09.821Z,46.30
2018-04-06T09:07:38.123Z,45.70
2018-04-06T09:10:06.367Z,44.50
2018-04-06T09:12:35.432Z,42.10
2018-04-06T09:15:03.713Z,42.10
2018-04-06T09:17:31.948Z,41.50
2018-04-06T09:20:00.208Z,42.10
2018-04-06T09:22:30.193Z,43.60
2018-04-06T09:24:58.439Z,43.10
2018-04-06T09:27:26.717Z,43.70
2018-04-06T09:29:54.952Z,42.60
2018-04-06T09:32:23.992Z,42.00
2018-04-06T09:34:52.252Z,41.90
2018-04-06T09:37:20.526Z,41.70
2018-04-06T09:39:49.552Z,42.00
2018-04-06T09:42:17.814Z,42.10
2018-04-06T09:44:46.121Z,42.20
2018-04-06T09:47:14.474Z,41.30
2018-04-06T09:49:42.749Z,40.10
2018-04-06T09:52:11.062Z,38.80
2018-04-06T09:54:39.338Z,36.40
2018-04-06T09:57:07.582Z,35.90
2018-04-06T09:59:36.622Z,35.00
2018-04-06T10:02:10.534Z,35.00
2018-04-06T10:04:38.848Z,35.50
2018-04-06T10:07:07.086Z,36.80
2018-04-06T10:09:35.369Z,36.90
2018-04-06T10:12:03.657Z,37.00
2018-04-06T10:14:31.930Z,35.10
2018-04-06T10:17:00.173Z,31.30
2018-04-06T10:19:29.195Z,33.10
2018-04-06T10:21:58.241Z,33.00
2018-04-06T10:24:26.464Z,32.30
2018-04-06T10:26:55.482Z,31.90
2018-04-06T10:29:23.808Z,31.90
2018-04-06T10:31:52.030Z,31.30
2018-04-06T10:34:20.318Z,31.70
2018-04-06T10:36:48.568Z,32.50
2018-04-06T10:39:16.903Z,32.60
2018-04-06T10:41:45.151Z,32.20
2018-04-06T10:44:14.868Z,32.50
2018-04-06T10:46:43.889Z,31.30
2018-04-06T10:49:12.179Z,31.20
2018-04-06T10:51:40.418Z,29.70
2018-04-06T10:54:09.443Z,29.10
2018-04-06T10:56:37.694Z,29.00
2018-04-06T10:59:06.714Z,30.10
2018-04-06T11:01:35.006Z,30.10
2018-04-06T11:04:03.507Z,30.00
2018-04-06T11:06:31.736Z,30.70
2018-04-06T11:09:00.786Z,30.10
2018-04-06T11:11:29.086Z,30.10
2018-04-06T11:13:57.322Z,30.00
2018-04-06T11:16:25.559Z,31.30
2018-04-06T11:18:53.811Z,31.90
2018-04-06T11:21:22.050Z,31.10
2018-04-06T11:23:50.306Z,30.80
2018-04-06T11:26:18.549Z,31.00
2018-04-06T11:28:46.814Z,31.40
2018-04-06T11:31:15.109Z,31.60
2018-04-06T11:33:43.370Z,31.00
2018-04-06T11:36:11.672Z,30.70
2018-04-06T11:38:39.942Z,30.90
2018-04-06T11:41:08.195Z,30.70
2018-04-06T11:43:36.506Z,31.00
2018-04-06T11:46:04.754Z,31.10
2018-04-06T11:48:33.882Z,32.10
2018-04-06T11:51:02.171Z,32.10
2018-04-06T11:53:30.428Z,32.60
2018-04-06T11:55:58.666Z,30.70
2018-04-06T11:58:26.924Z,30.50
2018-04-06T12:00:55.166Z,30.40
2018-04-06T12:03:23.451Z,30.00
2018-04-06T12:05:51.738Z,30.70
2018-04-06T12:08:20.027Z,31.40
2018-04-06T12:10:48.267Z,32.40
2018-04-06T12:13:17.295Z,31.90
2018-04-06T12:15:45.586Z,31.80
2018-04-06T12:18:13.875Z,32.10
2018-04-06T12:20:42.151Z,32.70
2018-04-06T12:23:10.430Z,32.10
2018-04-06T12:25:38.681Z,32.40
2018-04-06T12:28:07.721Z,34.50
2018-04-06T12:30:35.957Z,34.40
2018-04-06T12:33:05.038Z,34.10
2018-04-06T12:35:33.262Z,34.10
2018-04-06T12:38:01.525Z,34.70
2018-04-06T12:40:29.824Z,35.30
2018-04-06T12:42:58.068Z,35.90
2018-04-06T12:45:27.085Z,37.20
2018-04-06T12:47:56.105Z,39.20
2018-04-06T12:50:24.381Z,39.10
2018-04-06T12:52:52.622Z,38.30
2018-04-06T12:55:20.908Z,38.20
2018-04-06T12:57:49.203Z,38.40
2018-04-06T13:00:19.053Z,38.10
2018-04-06T13:02:47.330Z,38.00
2018-04-06T13:05:15.616Z,38.60
2018-04-06T13:07:43.894Z,38.50
2018-04-06T13:10:12.182Z,38.40
2018-04-06T13:12:40.434Z,37.80
2018-04-06T13:15:08.710Z,37.90
2018-04-06T13:17:37.786Z,37.80
2018-04-06T13:20:06.051Z,37.60
2018-04-06T13:22:34.285Z,39.00
2018-04-06T13:25:02.547Z,38.60
2018-04-06T13:27:31.577Z,39.50
2018-04-06T13:29:59.829Z,38.90
2018-04-06T13:32:28.836Z,37.10
2018-04-06T13:34:57.135Z,37.10
2018-04-06T13:37:25.415Z,37.50
2018-04-06T13:39:54.448Z,37.10
2018-04-06T13:42:22.686Z,37.10
2018-04-06T13:44:50.950Z,35.80
2018-04-06T13:47:20.006Z,37.00
2018-04-06T13:49:48.258Z,37.10
2018-04-06T13:52:17.329Z,36.60
2018-04-06T13:54:45.633Z,37.10
2018-04-06T13:57:13.875Z,37.60
2018-04-06T13:59:42.151Z,38.20
2018-04-06T14:02:11.315Z,39.10
2018-04-06T14:04:40.568Z,39.50
2018-04-06T14:07:08.854Z,39.50
2018-04-06T14:09:37.879Z,39.50
2018-04-06T14:12:06.167Z,39.40
2018-04-06T14:14:34.422Z,40.00
2018-04-06T14:17:02.670Z,40.50
2018-04-06T14:19:30.932Z,39.90
2018-04-06T14:21:59.185Z,39.50
2018-04-06T14:24:27.437Z,40.80
2018-04-06T14:26:55.702Z,41.10
2018-04-06T14:29:24.883Z,40.80
2018-04-06T14:31:53.233Z,40.90
2018-04-06T14:34:21.502Z,39.90
2018-04-06T14:36:49.722Z,40.30
2018-04-06T14:39:18.356Z,40.40
2018-04-06T14:41:47.338Z,41.70
2018-04-06T14:44:16.385Z,41.80
2018-04-06T14:46:44.771Z,41.30
2018-04-06T14:49:13.023Z,41.20
2018-04-06T14:51:41.273Z,40.80
2018-04-06T14:54:09.545Z,41.30
2018-04-06T14:56:38.308Z,41.50
2018-04-06T14:59:06.569Z,42.20
2018-04-06T15:01:34.801Z,42.30
2018-04-06T15:04:03.140Z,41.70
2018-04-06T15:06:31.578Z,41.20
2018-04-06T15:09:00.602Z,42.30
2018-04-06T15:11:28.843Z,42.30
2018-04-06T15:13:57.863Z,43.00
2018-04-06T15:16:26.894Z,43.30
2018-04-06T15:18:55.181Z,43.30
2018-04-06T15:21:23.430Z,43.20
2018-04-06T15:23:52.466Z,43.50
2018-04-06T15:26:20.721Z,43.50
2018-04-06T15:28:49.019Z,42.40
2018-04-06T15:31:18.127Z,42.60
2018-04-06T15:33:46.367Z,42.60
2018-04-06T15:36:15.390Z,42.80
2018-04-06T15:38:43.650Z,42.70
2018-04-06T15:41:12.687Z,42.50
2018-04-06T15:43:41.015Z,42.50
2018-04-06T15:46:09.286Z,42.70
2018-04-06T15:48:37.519Z,42.90
2018-04-06T15:51:05.770Z,42.80
2018-04-06T15:53:34.775Z,42.90
2018-04-06T15:56:03.919Z,43.60
2018-04-06T15:58:32.533Z,43.60
2018-04-06T16:01:01.223Z,42.60
2018-04-06T16:03:30.632Z,43.00
2018-04-06T16:05:59.977Z,43.30
2018-04-06T16:08:28.525Z,43.30
2018-04-06T16:10:57.589Z,43.30
2018-04-06T16:13:25.843Z,43.20
2018-04-06T16:15:54.860Z,43.30
2018-04-06T16:18:23.160Z,43.30
2018-04-06T16:20:51.469Z,44.10
2018-04-06T16:23:19.715Z,42.50
2018-04-06T16:25:47.953Z,44.20
2018-04-06T16:28:17.009Z,44.70
2018-04-06T16:30:45.271Z,44.70
2018-04-06T16:33:13.530Z,44.80
2018-04-06T16:35:42.549Z,43.90
2018-04-06T16:38:10.806Z,43.90
2018-04-06T16:40:39.855Z,43.80
2018-04-06T16:43:08.958Z,43.80
2018-04-06T16:45:37.207Z,44.40
2018-04-06T16:48:05.500Z,44.50
2018-04-06T16:50:34.516Z,45.00
2018-04-06T16:53:02.782Z,45.10
2018-04-06T16:55:31.099Z,45.60
2018-04-06T16:57:59.786Z,44.80
2018-04-06T17:00:28.377Z,45.00
2018-04-06T17:02:56.962Z,45.00
2018-04-06T17:05:25.411Z,45.70
2018-04-06T17:07:53.755Z,45.50
2018-04-06T17:10:23.075Z,45.30
2018-04-06T17:12:52.288Z,45.00
2018-04-06T17:15:20.681Z,45.00
2018-04-06T17:17:49.098Z,45.10
2018-04-06T17:20:17.496Z,45.00
2018-04-06T17:22:45.903Z,45.20
2018-04-06T17:25:15.144Z,45.70
2018-04-06T17:27:43.457Z,45.70
2018-04-06T17:30:11.794Z,45.60
2018-04-06T17:32:40.444Z,45.90
2018-04-06T17:35:08.680Z,46.00
2018-04-06T17:37:36.947Z,46.20
2018-04-06T17:40:05.187Z,46.50
2018-04-06T17:42:33.434Z,47.10
2018-04-06T17:45:02.392Z,47.10
2018-04-06T17:47:31.413Z,47.50
2018-04-06T17:50:00.605Z,47.40
2018-04-06T17:52:28.905Z,47.60
2018-04-06T17:54:57.333Z,47.80
2018-04-06T17:57:27.256Z,48.40
2018-04-06T17:59:55.741Z,48.90
2018-04-06T18:02:24.176Z,48.40
2018-04-06T18:04:54.250Z,48.50
2018-04-06T18:07:22.940Z,48.50
2018-04-06T18:09:52.325Z,49.00
2018-04-06T18:12:20.590Z,48.90
2018-04-06T18:14:48.887Z,49.20
2018-04-06T18:17:17.147Z,49.30
2018-04-06T18:19:45.442Z,49.20
2018-04-06T18:22:13.695Z,49.30
2018-04-06T18:24:42.007Z,50.00
2018-04-06T18:27:10.268Z,49.40
2018-04-06T18:29:38.518Z,49.50
2018-04-06T18:32:07.536Z,49.70
2018-04-06T18:34:36.543Z,49.70
2018-04-06T18:37:04.839Z,49.70
2018-04-06T18:39:33.073Z,49.60
2018-04-06T18:42:01.347Z,49.60
2018-04-06T18:44:29.588Z,49.70
2018-04-06T18:46:57.857Z,49.90
2018-04-06T18:49:26.128Z,50.00
2018-04-06T18:51:54.367Z,50.30
2018-04-06T18:54:24.155Z,50.00
2018-04-06T18:56:52.400Z,50.00
2018-04-06T18:59:20.653Z,50.30
2018-04-06T19:01:49.706Z,50.90
2018-04-06T19:04:17.970Z,50.50
2018-04-06T19:06:46.992Z,50.70
2018-04-06T19:09:15.278Z,50.70
2018-04-06T19:11:43.523Z,50.80
2018-04-06T19:14:11.828Z,50.90
2018-04-06T19:16:40.082Z,51.50
2018-04-06T19:19:09.112Z,52.20
2018-04-06T19:21:37.358Z,52.20
2018-04-06T19:24:06.423Z,52.60
2018-04-06T19:26:34.668Z,53.20
2018-04-06T19:29:02.917Z,53.40
2018-04-06T19:31:31.942Z,54.10
2018-04-06T19:34:00.221Z,54.10
2018-04-06T19:36:28.541Z,54.80
2018-04-06T19:38:56.786Z,54.90
2018-04-06T19:41:25.026Z,55.50
2018-04-06T19:43:54.081Z,56.60
2018-04-06T19:46:22.359Z,56.00
2018-04-06T19:48:50.606Z,56.10
2018-04-06T19:51:19.627Z,56.80
2018-04-06T19:53:47.911Z,56.70
2018-04-06T19:56:16.193Z,56.80
2018-04-06T19:58:44.474Z,57.10
2018-04-06T20:01:12.868Z,57.20
2018-04-06T20:03:41.888Z,58.20
2018-04-06T20:06:10.148Z,57.60
2018-04-06T20:08:38.410Z,57.80
2018-04-06T20:11:06.704Z,57.80
2018-04-06T20:13:34.974Z,57.90
2018-04-06T20:16:05.068Z,58.00
2018-04-06T20:18:34.522Z,58.00
2018-04-06T20:21:02.801Z,58.30
2018-04-06T20:23:31.075Z,58.50
2018-04-06T20:25:59.354Z,58.70
2018-04-06T20:28:27.612Z,59.00
2018-04-06T20:30:56.622Z,59.60
2018-04-06T20:33:24.883Z,59.60
2018-04-06T20:35:53.903Z,59.70
2018-04-06T20:38:23.015Z,59.70
2018-04-06T20:40:51.246Z,59.90
2018-04-06T20:43:19.578Z,60.00
2018-04-06T20:45:47.835Z,60.90
2018-04-06T20:48:16.086Z,60.50
2018-04-06T20:50:44.343Z,60.60
2018-04-06T20:53:12.584Z,61.00
2018-04-06T20:55:40.874Z,61.30
2018-04-06T20:58:09.332Z,61.60
2018-04-06T21:00:37.878Z,61.70
2018-04-06T21:03:06.137Z,62.00
2018-04-06T21:05:34.396Z,62.30
2018-04-06T21:08:02.636Z,62.70
2018-04-06T21:10:30.902Z,62.80
2018-04-06T21:12:59.141Z,62.90
2018-04-06T21:15:27.400Z,62.80
2018-04-06T21:17:56.434Z,63.20
2018-04-06T21:20:24.711Z,63.20
2018-04-06T21:22:52.949Z,63.30
2018-04-06T21:25:21.967Z,63.70
2018-04-06T21:27:50.262Z,63.60
2018-04-06T21:30:19.354Z,63.90
2018-04-06T21:32:47.600Z,64.30
2018-04-06T21:35:16.634Z,64.70
2018-04-06T21:37:44.877Z,65.00
2018-04-06T21:40:13.173Z,65.20
2018-04-06T21:42:42.195Z,65.90
2018-04-06T21:45:10.453Z,65.80
2018-04-06T21:47:39.467Z,66.30
2018-04-06T21:50:07.742Z,66.30
2018-04-06T21:52:36.047Z,66.70
2018-04-06T21:55:04.289Z,67.10
2018-04-06T21:57:33.324Z,67.50
2018-04-06T22:00:01.579Z,67.30
2018-04-06T22:02:29.848Z,67.50
2018-04-06T22:04:58.160Z,67.70
2018-04-06T22:07:26.425Z,67.10
2018-04-06T22:09:54.673Z,67.90
2018-04-06T22:12:23.695Z,68.10
2018-04-06T22:14:51.995Z,68.00
2018-04-06T22:17:20.248Z,68.20
2018-04-06T22:19:49.256Z,68.30
2018-04-06T22:22:17.515Z,68.30
2018-04-06T22:24:46.522Z,68.40
2018-04-06T22:27:15.546Z,68.30
2018-04-06T22:29:43.794Z,68.40
2018-04-06T22:32:12.925Z,68.70
2018-04-06T22:34:41.256Z,68.60
2018-04-06T22:37:11.023Z,68.90
2018-04-06T22:39:39.297Z,68.90
2018-04-06T22:42:07.569Z,68.80
2018-04-06T22:44:35.811Z,68.80
2018-04-06T22:47:04.077Z,69.90
2018-04-06T22:49:32.314Z,70.30
2018-04-06T22:52:00.608Z,70.50
2018-04-06T22:54:28.867Z,70.70
2018-04-06T22:56:57.161Z,70.80
2018-04-06T22:59:25.446Z,71.20
2018-04-06T23:01:53.728Z,71.20
2018-04-06T23:04:22.014Z,71.50
2018-04-06T23:06:50.261Z,71.60
2018-04-06T23:09:18.563Z,71.30
2018-04-06T23:11:46.839Z,71.50
2018-04-06T23:14:15.835Z,71.60
2018-04-06T23:16:44.126Z,71.50
2018-04-06T23:19:12.394Z,71.40
2018-04-06T23:21:40.642Z,71.80
2018-04-06T23:24:08.973Z,71.90
2018-04-06T23:26:37.210Z,72.00
2018-04-06T23:29:06.228Z,72.50
2018-04-06T23:31:34.474Z,72.30
2018-04-06T23:34:02.719Z,72.60
2018-04-06T23:36:30.986Z,72.70
2018-04-06T23:38:59.260Z,72.70
2018-04-06T23:41:27.541Z,72.50
2018-04-06T23:43:55.793Z,72.80
2018-04-06T23:46:24.804Z,73.20
2018-04-06T23:48:53.104Z,73.20
2018-04-06T23:51:21.334Z,73.50
2018-04-06T23:53:50.385Z,73.80
2018-04-06T23:56:18.621Z,73.70
2018-04-06T23:58:47.639Z,73.70
